createdAt,value
2022-10-30T00:01:02.601Z,5.00
2022-10-30T00:03:32.609Z,4.73
2022-10-30T00:06:00.882Z,4.93
2022-10-30T00:08:29.189Z,4.73
2022-10-30T00:10:57.434Z,4.40
2022-10-30T00:13:25.686Z,5.77
2022-10-30T00:15:55.112Z,5.80
2022-10-30T00:18:23.402Z,5.23
2022-10-30T00:20:53.092Z,4.80
2022-10-30T00:23:21.443Z,5.33
2022-10-30T00:25:49.702Z,5.00
2022-10-30T00:28:17.926Z,4.97
2022-10-30T00:30:46.169Z,4.80
2022-10-30T00:33:14.451Z,4.77
2022-10-30T00:35:49.968Z,5.30
2022-10-30T00:38:19.609Z,4.60
2022-10-30T00:40:47.862Z,4.80
2022-10-30T00:43:35.722Z,4.37
2022-10-30T00:46:16.710Z,4.90
2022-10-30T00:48:49.602Z,4.90
2022-10-30T00:51:18.751Z,4.73
2022-10-30T00:53:49.293Z,4.90
2022-10-30T00:56:21.975Z,4.90
2022-10-30T00:58:55.273Z,4.83
2022-10-30T01:01:27.807Z,4.87
2022-10-30T01:03:59.549Z,4.97
2022-10-30T01:06:29.278Z,5.20
2022-10-30T01:09:00.284Z,4.87
2022-10-30T01:11:28.832Z,5.40
2022-10-30T01:14:01.120Z,5.37
2022-10-30T01:16:57.272Z,6.07
2022-10-30T01:19:33.947Z,4.97
2022-10-30T01:22:29.085Z,5.77
2022-10-30T01:25:12.259Z,5.43
2022-10-30T01:27:52.776Z,4.47
2022-10-30T01:30:37.376Z,5.67
2022-10-30T01:33:23.995Z,5.10
2022-10-30T01:36:03.090Z,5.20
2022-10-30T01:38:37.476Z,5.50
2022-10-30T01:41:07.200Z,4.83
2022-10-30T01:43:36.599Z,5.40
2022-10-30T01:46:33.016Z,5.07
2022-10-30T01:49:18.572Z,5.23
2022-10-30T01:52:02.400Z,4.77
2022-10-30T01:54:40.149Z,5.00
2022-10-30T01:57:19.447Z,4.83
2022-10-30T01:59:54.468Z,6.57
2022-10-30T02:02:23.854Z,5.13
2022-10-30T02:04:52.836Z,4.67
2022-10-30T02:07:21.280Z,5.53
2022-10-30T02:09:52.270Z,4.70
2022-10-30T02:12:23.341Z,5.30
2022-10-30T02:14:55.827Z,5.50
2022-10-30T02:17:24.669Z,4.90
2022-10-30T02:19:52.896Z,4.80
2022-10-30T02:22:22.909Z,4.73
2022-10-30T02:24:51.216Z,4.70
2022-10-30T02:27:19.501Z,4.77
2022-10-30T02:29:49.283Z,5.57
2022-10-30T02:32:17.575Z,5.10
2022-10-30T02:34:45.818Z,4.67
2022-10-30T02:37:14.062Z,4.90
2022-10-30T02:39:43.707Z,5.87
2022-10-30T02:42:12.132Z,5.17
2022-10-30T02:44:40.362Z,4.73
2022-10-30T02:47:08.636Z,4.93
2022-10-30T02:49:36.972Z,5.47
2022-10-30T02:52:07.810Z,5.10
2022-10-30T02:54:36.104Z,4.63
2022-10-30T02:57:05.939Z,4.80
2022-10-30T02:59:34.148Z,4.60
2022-10-30T03:02:02.487Z,5.23
2022-10-30T03:04:30.782Z,5.00
2022-10-30T03:06:59.047Z,4.23
2022-10-30T03:09:27.287Z,4.67
2022-10-30T03:11:55.547Z,4.30
2022-10-30T03:14:25.192Z,4.53
2022-10-30T03:16:53.592Z,4.83
2022-10-30T03:19:22.176Z,4.47
2022-10-30T03:21:50.422Z,4.53
2022-10-30T03:24:18.652Z,4.10
2022-10-30T03:26:47.908Z,4.27
2022-10-30T03:29:16.116Z,4.20
2022-10-30T03:31:45.754Z,4.73
2022-10-30T03:34:13.952Z,4.10
2022-10-30T03:36:42.160Z,3.97
2022-10-30T03:39:10.650Z,4.37
2022-10-30T03:41:38.884Z,4.50
2022-10-30T03:44:07.138Z,4.67
2022-10-30T03:46:35.888Z,3.93
2022-10-30T03:49:05.477Z,4.70
2022-10-30T03:51:33.742Z,4.20
2022-10-30T03:54:01.951Z,4.57
2022-10-30T03:56:30.217Z,4.97
2022-10-30T03:58:58.432Z,4.80
2022-10-30T04:01:26.830Z,4.53
2022-10-30T04:03:55.278Z,4.53
2022-10-30T04:06:24.825Z,4.20
2022-10-30T04:08:55.514Z,4.80
2022-10-30T04:11:23.813Z,4.33
2022-10-30T04:13:52.040Z,4.40
2022-10-30T04:16:20.252Z,4.60
2022-10-30T04:18:48.462Z,4.67
2022-10-30T04:21:16.661Z,4.57
2022-10-30T04:23:46.237Z,4.93
2022-10-30T04:26:15.135Z,4.47
2022-10-30T04:28:43.339Z,4.57
2022-10-30T04:31:11.600Z,4.73
2022-10-30T04:33:39.827Z,4.50
2022-10-30T04:36:09.496Z,5.17
2022-10-30T04:38:37.760Z,4.73
2022-10-30T04:41:07.422Z,4.67
2022-10-30T04:43:35.678Z,4.57
2022-10-30T04:46:06.845Z,4.87
2022-10-30T04:48:36.242Z,5.50
2022-10-30T04:51:04.647Z,4.97
2022-10-30T04:53:32.887Z,4.80
2022-10-30T04:56:01.089Z,4.67
2022-10-30T04:58:30.768Z,5.00
2022-10-30T05:01:03.339Z,5.00
2022-10-30T05:03:32.182Z,5.17
2022-10-30T05:06:04.057Z,5.27
2022-10-30T05:08:32.781Z,4.77
2022-10-30T05:11:01.399Z,5.20
2022-10-30T05:13:30.985Z,4.93
2022-10-30T05:15:59.188Z,4.60
2022-10-30T05:18:27.425Z,5.40
2022-10-30T05:20:55.640Z,5.30
2022-10-30T05:23:24.031Z,5.73
2022-10-30T05:25:52.320Z,4.93
2022-10-30T05:28:20.601Z,5.53
2022-10-30T05:30:54.729Z,4.87
2022-10-30T05:33:23.673Z,4.83
2022-10-30T05:35:52.025Z,4.83
2022-10-30T05:38:20.263Z,4.40
2022-10-30T05:40:48.532Z,4.93
2022-10-30T05:43:16.741Z,5.20
2022-10-30T05:45:45.017Z,4.57
2022-10-30T05:48:14.577Z,5.43
2022-10-30T05:50:43.014Z,6.00
2022-10-30T05:53:11.783Z,5.17
2022-10-30T05:55:40.016Z,5.90
2022-10-30T05:58:08.622Z,5.97
2022-10-30T06:00:39.222Z,5.70
2022-10-30T06:03:11.195Z,5.97
2022-10-30T06:05:41.317Z,5.83
2022-10-30T06:08:09.800Z,5.67
2022-10-30T06:10:38.138Z,5.40
2022-10-30T06:13:08.305Z,5.63
2022-10-30T06:15:36.510Z,5.43
2022-10-30T06:18:05.067Z,6.23
2022-10-30T06:20:33.686Z,6.00
2022-10-30T06:23:06.126Z,5.53
2022-10-30T06:25:40.807Z,5.60
2022-10-30T06:28:10.795Z,5.57
2022-10-30T06:30:39.054Z,5.17
2022-10-30T06:33:08.223Z,5.60
2022-10-30T06:35:36.530Z,5.80
2022-10-30T06:38:06.095Z,5.70
2022-10-30T06:40:34.335Z,5.37
2022-10-30T06:43:02.956Z,5.80
2022-10-30T06:45:31.361Z,5.90
2022-10-30T06:48:01.766Z,6.50
2022-10-30T06:50:30.572Z,6.57
2022-10-30T06:52:58.806Z,6.50
2022-10-30T06:55:28.478Z,6.37
2022-10-30T06:57:58.279Z,6.53
2022-10-30T07:00:26.805Z,6.10
2022-10-30T07:03:00.257Z,7.80
2022-10-30T07:05:29.070Z,7.37
2022-10-30T07:07:58.748Z,8.27
2022-10-30T07:10:28.357Z,8.43
2022-10-30T07:12:58.826Z,8.37
2022-10-30T07:15:28.225Z,8.03
2022-10-30T07:17:58.659Z,9.07
2022-10-30T07:20:29.040Z,8.60
2022-10-30T07:22:57.409Z,9.07
2022-10-30T07:25:27.427Z,8.03
2022-10-30T07:27:58.290Z,7.57
2022-10-30T07:30:28.600Z,7.53
2022-10-30T07:33:02.432Z,7.47
2022-10-30T07:35:31.815Z,6.80
2022-10-30T07:38:04.436Z,6.60
2022-10-30T07:40:34.754Z,6.40
2022-10-30T07:43:05.302Z,7.03
2022-10-30T07:45:34.586Z,7.53
2022-10-30T07:48:03.276Z,7.07
2022-10-30T07:50:31.864Z,7.13
2022-10-30T07:53:00.314Z,7.00
2022-10-30T07:55:28.536Z,8.37
2022-10-30T07:57:58.468Z,7.60
2022-10-30T08:00:27.005Z,7.40
2022-10-30T08:02:58.638Z,7.93
2022-10-30T08:05:28.962Z,7.73
2022-10-30T08:07:58.903Z,7.40
2022-10-30T08:10:27.554Z,7.57
2022-10-30T08:12:57.155Z,8.17
2022-10-30T08:15:25.602Z,8.50
2022-10-30T08:17:54.467Z,8.00
2022-10-30T08:20:24.684Z,7.93
2022-10-30T08:22:54.931Z,7.73
2022-10-30T08:25:26.391Z,8.10
2022-10-30T08:27:59.396Z,8.37
2022-10-30T08:30:30.212Z,7.40
2022-10-30T08:33:00.056Z,8.97
2022-10-30T08:35:28.853Z,8.17
2022-10-30T08:37:57.853Z,7.87
2022-10-30T08:40:27.715Z,8.73
2022-10-30T08:42:59.044Z,8.50
2022-10-30T08:45:30.883Z,8.90
2022-10-30T08:48:01.327Z,9.63
2022-10-30T08:50:30.310Z,8.93
2022-10-30T08:53:03.152Z,8.80
2022-10-30T08:55:32.094Z,8.50
2022-10-30T08:58:02.263Z,8.93
2022-10-30T09:00:30.984Z,8.10
2022-10-30T09:02:59.636Z,8.63
2022-10-30T09:05:28.325Z,8.23
2022-10-30T09:08:01.500Z,8.10
2022-10-30T09:10:31.901Z,8.30
2022-10-30T09:13:03.263Z,8.50
2022-10-30T09:15:31.503Z,7.43
2022-10-30T09:18:03.007Z,8.27
2022-10-30T09:20:32.496Z,8.73
2022-10-30T09:23:01.182Z,7.53
2022-10-30T09:25:29.755Z,8.70
2022-10-30T09:27:58.121Z,8.23
2022-10-30T09:30:28.205Z,9.07
2022-10-30T09:32:58.226Z,8.70
2022-10-30T09:35:27.289Z,8.77
2022-10-30T09:37:55.860Z,8.33
2022-10-30T09:40:33.423Z,8.63
2022-10-30T09:43:11.249Z,8.43
2022-10-30T09:46:17.171Z,7.57
2022-10-30T09:49:24.273Z,7.80
2022-10-30T09:52:27.400Z,8.83
2022-10-30T09:55:15.222Z,7.17
2022-10-30T09:57:55.510Z,7.07
2022-10-30T10:00:27.587Z,6.83
2022-10-30T10:03:19.283Z,6.57
2022-10-30T10:05:53.303Z,6.83
2022-10-30T10:08:28.294Z,6.80
2022-10-30T10:11:00.893Z,6.87
2022-10-30T10:13:37.395Z,7.27
2022-10-30T10:16:14.975Z,6.40
2022-10-30T10:18:48.539Z,6.57
2022-10-30T10:21:27.335Z,6.33
2022-10-30T10:23:58.763Z,7.30
2022-10-30T10:26:33.290Z,6.50
2022-10-30T10:29:35.387Z,6.03
2022-10-30T10:32:32.361Z,6.77
2022-10-30T10:35:23.793Z,6.17
2022-10-30T10:38:01.046Z,7.10
2022-10-30T10:40:43.280Z,6.00
2022-10-30T10:43:26.034Z,6.43
2022-10-30T10:46:04.748Z,6.23
2022-10-30T10:49:04.336Z,6.20
2022-10-30T10:51:39.702Z,6.13
2022-10-30T10:54:15.531Z,5.63
2022-10-30T10:56:48.793Z,6.63
2022-10-30T10:59:21.527Z,5.77
2022-10-30T11:01:57.553Z,5.93
2022-10-30T11:04:33.823Z,5.93
2022-10-30T11:07:16.920Z,5.97
2022-10-30T11:09:45.892Z,5.90
2022-10-30T11:12:14.149Z,5.93
2022-10-30T11:14:42.861Z,5.57
2022-10-30T11:17:20.784Z,5.60
2022-10-30T11:19:52.946Z,5.13
2022-10-30T11:22:30.031Z,5.73
2022-10-30T11:25:10.925Z,6.10
2022-10-30T11:27:39.381Z,5.10
2022-10-30T11:30:19.999Z,6.27
2022-10-30T11:32:48.352Z,5.40
2022-10-30T11:35:19.192Z,4.90
2022-10-30T11:37:51.396Z,5.37
2022-10-30T11:40:23.068Z,5.00
2022-10-30T11:42:58.097Z,5.70
2022-10-30T11:45:29.667Z,5.43
2022-10-30T11:48:02.614Z,4.70
2022-10-30T11:50:33.728Z,5.53
2022-10-30T11:53:12.259Z,4.57
2022-10-30T11:55:43.156Z,5.13
2022-10-30T11:58:27.233Z,5.23
2022-10-30T12:01:08.294Z,5.77
2022-10-30T12:03:39.132Z,6.87
2022-10-30T12:06:15.089Z,6.20
2022-10-30T12:09:01.241Z,6.10
2022-10-30T12:11:31.800Z,5.60
2022-10-30T12:14:00.691Z,6.40
2022-10-30T12:16:29.722Z,5.83
2022-10-30T12:19:04.110Z,5.80
2022-10-30T12:21:38.135Z,5.70
2022-10-30T12:24:18.955Z,5.97
2022-10-30T12:26:51.194Z,5.33
2022-10-30T12:29:24.315Z,5.33
2022-10-30T12:31:59.435Z,4.77
2022-10-30T12:34:43.285Z,5.20
2022-10-30T12:37:18.555Z,4.57
2022-10-30T12:39:57.859Z,5.10
2022-10-30T12:42:27.227Z,5.20
2022-10-30T12:45:09.020Z,4.40
2022-10-30T12:47:44.773Z,4.53
2022-10-30T12:50:21.873Z,4.63
2022-10-30T12:52:58.685Z,4.33
2022-10-30T12:55:35.246Z,5.17
2022-10-30T12:58:12.144Z,5.33
2022-10-30T13:00:47.237Z,4.87
2022-10-30T13:03:27.624Z,4.63
2022-10-30T13:05:59.290Z,5.00
2022-10-30T13:08:34.179Z,4.73
2022-10-30T13:11:12.702Z,4.90
2022-10-30T13:13:46.497Z,4.73
2022-10-30T13:16:18.859Z,4.83
2022-10-30T13:18:47.242Z,5.00
2022-10-30T13:21:23.783Z,5.30
2022-10-30T13:23:57.175Z,4.87
2022-10-30T13:26:38.228Z,4.37
2022-10-30T13:29:20.451Z,4.30
2022-10-30T13:32:14.484Z,4.50
2022-10-30T13:34:53.776Z,5.23
2022-10-30T13:37:30.349Z,4.47
2022-10-30T13:40:14.763Z,4.60
2022-10-30T13:42:59.658Z,4.13
2022-10-30T13:46:11.769Z,4.07
2022-10-30T13:48:59.748Z,4.50
2022-10-30T13:51:38.730Z,5.10
2022-10-30T13:54:18.530Z,4.50
2022-10-30T13:56:49.479Z,4.47
2022-10-30T13:59:48.138Z,5.27
2022-10-30T14:02:30.235Z,4.13
2022-10-30T14:05:05.721Z,4.50
2022-10-30T14:07:42.943Z,4.63
2022-10-30T14:10:17.251Z,5.53
2022-10-30T14:12:54.032Z,5.23
2022-10-30T14:15:33.910Z,5.23
2022-10-30T14:18:46.529Z,5.17
2022-10-30T14:21:41.152Z,5.13
2022-10-30T14:24:16.384Z,4.73
2022-10-30T14:26:52.886Z,5.23
2022-10-30T14:29:48.451Z,5.37
2022-10-30T14:32:50.004Z,5.30
2022-10-30T14:35:40.469Z,5.20
2022-10-30T14:38:28.896Z,5.63
2022-10-30T14:41:45.958Z,5.77
2022-10-30T14:44:51.216Z,5.80
2022-10-30T14:47:40.409Z,5.90
2022-10-30T14:50:23.675Z,5.07
2022-10-30T14:53:11.628Z,5.03
2022-10-30T14:55:54.899Z,5.23
2022-10-30T14:58:26.964Z,5.83
2022-10-30T15:01:27.186Z,5.10
2022-10-30T15:04:15.688Z,5.70
2022-10-30T15:07:06.967Z,5.93
2022-10-30T15:09:48.630Z,7.17
2022-10-30T15:12:51.302Z,7.27
2022-10-30T15:15:20.675Z,7.93
2022-10-30T15:17:52.019Z,6.77
2022-10-30T15:20:26.592Z,6.27
2022-10-30T15:22:58.986Z,6.03
2022-10-30T15:25:34.826Z,5.80
2022-10-30T15:28:03.579Z,6.63
2022-10-30T15:30:32.006Z,6.27
2022-10-30T15:33:00.772Z,5.30
2022-10-30T15:35:31.313Z,6.30
2022-10-30T15:38:02.309Z,13.90
2022-10-30T15:40:31.896Z,10.30
2022-10-30T15:43:02.908Z,7.53
2022-10-30T15:45:35.643Z,5.77
2022-10-30T15:48:09.639Z,6.67
2022-10-30T15:50:45.070Z,5.60
2022-10-30T15:53:20.932Z,6.13
2022-10-30T15:55:50.651Z,6.50
2022-10-30T15:58:23.953Z,6.67
2022-10-30T16:01:00.301Z,6.47
2022-10-30T16:03:29.292Z,6.10
2022-10-30T16:06:18.924Z,5.73
2022-10-30T16:08:49.000Z,5.77
2022-10-30T16:11:17.792Z,6.27
2022-10-30T16:13:46.148Z,6.77
2022-10-30T16:16:21.814Z,7.87
2022-10-30T16:18:50.588Z,7.83
2022-10-30T16:21:24.676Z,7.30
2022-10-30T16:23:56.032Z,7.07
2022-10-30T16:26:32.645Z,7.80
2022-10-30T16:29:04.109Z,10.87
2022-10-30T16:31:37.252Z,8.47
2022-10-30T16:34:12.341Z,10.10
2022-10-30T16:36:43.113Z,13.47
2022-10-30T16:39:16.756Z,15.23
2022-10-30T16:41:45.623Z,14.70
2022-10-30T16:44:21.275Z,11.67
2022-10-30T16:46:52.653Z,10.67
2022-10-30T16:49:24.311Z,8.83
2022-10-30T16:51:59.539Z,9.13
2022-10-30T16:54:34.390Z,17.30
2022-10-30T16:57:05.182Z,28.07
2022-10-30T16:59:37.274Z,15.83
2022-10-30T17:02:16.243Z,11.57
2022-10-30T17:04:51.306Z,15.23
2022-10-30T17:07:26.682Z,11.37
2022-10-30T17:09:56.968Z,10.27
2022-10-30T17:12:26.947Z,7.57
2022-10-30T17:14:57.448Z,8.40
2022-10-30T17:17:32.915Z,7.83
2022-10-30T17:20:13.136Z,7.20
2022-10-30T17:22:43.111Z,7.10
2022-10-30T17:25:30.141Z,46.53
2022-10-30T17:27:58.787Z,21.17
2022-10-30T17:30:40.244Z,11.90
2022-10-30T17:33:42.920Z,10.87
2022-10-30T17:36:13.279Z,9.33
2022-10-30T17:38:43.008Z,9.57
2022-10-30T17:41:16.845Z,9.23
2022-10-30T17:43:53.497Z,8.53
2022-10-30T17:46:21.846Z,9.17
2022-10-30T17:48:50.746Z,8.57
2022-10-30T17:51:19.944Z,9.20
2022-10-30T17:53:50.316Z,9.07
2022-10-30T17:56:23.102Z,8.73
2022-10-30T17:58:51.596Z,9.10
2022-10-30T18:01:22.716Z,8.50
2022-10-30T18:03:51.785Z,8.13
2022-10-30T18:06:22.650Z,9.00
2022-10-30T18:08:53.286Z,8.53
2022-10-30T18:11:25.153Z,7.37
2022-10-30T18:13:53.993Z,7.63
2022-10-30T18:16:22.377Z,7.57
2022-10-30T18:18:51.028Z,7.80
2022-10-30T18:21:22.213Z,8.63
2022-10-30T18:23:53.453Z,8.93
2022-10-30T18:26:25.288Z,8.47
2022-10-30T18:28:53.902Z,8.10
2022-10-30T18:31:25.055Z,10.27
2022-10-30T18:33:53.398Z,10.60
2022-10-30T18:36:24.039Z,16.00
2022-10-30T18:38:54.586Z,12.03
2022-10-30T18:41:28.244Z,13.87
2022-10-30T18:43:56.589Z,11.03
2022-10-30T18:46:25.491Z,10.23
2022-10-30T18:48:53.743Z,14.80
2022-10-30T18:51:26.204Z,12.73
2022-10-30T18:53:57.129Z,12.10
2022-10-30T18:56:27.713Z,14.77
2022-10-30T18:59:00.522Z,15.43
2022-10-30T19:01:33.212Z,11.50
2022-10-30T19:04:03.800Z,12.53
2022-10-30T19:06:34.438Z,12.03
2022-10-30T19:09:05.195Z,10.80
2022-10-30T19:11:33.617Z,10.40
2022-10-30T19:14:01.941Z,10.23
2022-10-30T19:16:30.357Z,10.10
2022-10-30T19:18:58.615Z,8.60
2022-10-30T19:21:28.092Z,9.43
2022-10-30T19:23:57.093Z,9.90
2022-10-30T19:26:26.758Z,8.90
2022-10-30T19:28:55.056Z,9.30
2022-10-30T19:31:23.273Z,8.40
2022-10-30T19:33:54.592Z,9.43
2022-10-30T19:36:31.885Z,9.87
2022-10-30T19:39:05.738Z,9.07
2022-10-30T19:41:38.851Z,9.30
2022-10-30T19:44:07.424Z,9.60
2022-10-30T19:46:35.961Z,10.10
2022-10-30T19:49:17.110Z,10.20
2022-10-30T19:51:45.388Z,9.60
2022-10-30T19:54:13.698Z,10.07
2022-10-30T19:56:44.083Z,9.97
2022-10-30T19:59:14.944Z,8.97
2022-10-30T20:01:44.539Z,9.50
2022-10-30T20:04:13.530Z,9.10
2022-10-30T20:06:41.805Z,9.70
2022-10-30T20:09:12.079Z,9.70
2022-10-30T20:11:40.343Z,8.90
2022-10-30T20:14:09.965Z,8.57
2022-10-30T20:16:38.217Z,9.27
2022-10-30T20:19:28.255Z,9.97
2022-10-30T20:21:56.776Z,10.13
2022-10-30T20:24:25.550Z,9.00
2022-10-30T20:26:56.822Z,8.47
2022-10-30T20:29:26.650Z,8.60
2022-10-30T20:31:54.914Z,8.90
2022-10-30T20:34:23.153Z,9.17
2022-10-30T20:36:51.425Z,9.73
2022-10-30T20:39:19.707Z,9.73
2022-10-30T20:41:48.073Z,8.47
2022-10-30T20:44:16.322Z,9.10
2022-10-30T20:46:46.274Z,9.43
2022-10-30T20:49:18.241Z,9.17
2022-10-30T20:51:47.633Z,7.97
2022-10-30T20:54:16.153Z,8.23
2022-10-30T20:56:44.396Z,7.93
2022-10-30T20:59:12.707Z,7.30
2022-10-30T21:01:41.126Z,7.27
2022-10-30T21:04:10.887Z,6.87
2022-10-30T21:06:39.140Z,7.27
2022-10-30T21:09:07.444Z,7.27
2022-10-30T21:11:35.798Z,7.40
2022-10-30T21:14:04.083Z,7.50
2022-10-30T21:16:32.300Z,6.97
2022-10-30T21:19:00.516Z,6.77
2022-10-30T21:21:30.162Z,7.10
2022-10-30T21:23:58.440Z,7.30
2022-10-30T21:26:26.666Z,7.40
2022-10-30T21:29:05.798Z,7.63
2022-10-30T21:31:34.225Z,7.30
2022-10-30T21:34:02.525Z,7.53
2022-10-30T21:36:32.127Z,8.00
2022-10-30T21:39:00.524Z,7.33
2022-10-30T21:41:29.012Z,6.27
2022-10-30T21:43:59.109Z,6.97
2022-10-30T21:46:30.091Z,7.13
2022-10-30T21:49:03.272Z,7.20
2022-10-30T21:51:33.198Z,7.23
2022-10-30T21:54:01.480Z,7.03
2022-10-30T21:56:31.367Z,6.93
2022-10-30T21:59:04.566Z,6.83
2022-10-30T22:01:35.742Z,6.80
2022-10-30T22:04:06.565Z,6.70
2022-10-30T22:06:40.560Z,8.70
2022-10-30T22:09:08.970Z,6.57
2022-10-30T22:11:37.434Z,7.00
2022-10-30T22:14:06.700Z,6.30
2022-10-30T22:16:37.209Z,6.63
2022-10-30T22:19:06.827Z,6.70
2022-10-30T22:21:36.418Z,6.73
2022-10-30T22:24:05.892Z,6.47
2022-10-30T22:26:34.188Z,5.70
2022-10-30T22:29:02.606Z,6.13
2022-10-30T22:31:31.963Z,6.60
2022-10-30T22:34:01.762Z,6.83
2022-10-30T22:36:31.922Z,6.73
2022-10-30T22:39:03.942Z,7.90
2022-10-30T22:41:37.701Z,8.17
2022-10-30T22:44:08.914Z,8.80
2022-10-30T22:46:37.912Z,7.80
2022-10-30T22:49:07.320Z,7.63
2022-10-30T22:51:38.027Z,8.20
2022-10-30T22:54:11.197Z,7.40
2022-10-30T22:56:40.776Z,7.47
2022-10-30T22:59:13.005Z,6.97
2022-10-30T23:01:42.427Z,7.67
2022-10-30T23:04:14.040Z,6.77
2022-10-30T23:06:42.669Z,6.87
2022-10-30T23:09:18.880Z,7.07
2022-10-30T23:11:47.147Z,7.47
2022-10-30T23:14:16.344Z,7.60
2022-10-30T23:16:44.593Z,7.70
2022-10-30T23:19:13.034Z,8.57
2022-10-30T23:21:41.292Z,8.73
2022-10-30T23:24:11.067Z,7.60
2022-10-30T23:26:39.296Z,7.57
2022-10-30T23:29:07.470Z,7.30
2022-10-30T23:31:39.004Z,7.67
2022-10-30T23:34:10.150Z,8.27
2022-10-30T23:36:39.039Z,6.80
2022-10-30T23:39:11.902Z,7.77
2022-10-30T23:41:40.251Z,7.77
2022-10-30T23:44:12.749Z,8.33
2022-10-30T23:46:41.476Z,7.63
2022-10-30T23:49:09.905Z,7.20
2022-10-30T23:51:38.203Z,7.00
2022-10-30T23:54:06.736Z,6.50
2022-10-30T23:56:36.406Z,6.53
2022-10-30T23:59:04.866Z,5.90
